createdAt,value
2023-05-22T00:01:49.450Z,98437.03
2023-05-22T00:04:21.503Z,98432.16
2023-05-22T00:06:50.150Z,98429.78
2023-05-22T00:09:19.566Z,98433.28
2023-05-22T00:11:47.593Z,98415.88
2023-05-22T00:14:15.835Z,98416.09
2023-05-22T00:16:44.247Z,98434.28
2023-05-22T00:19:17.381Z,98431.97
2023-05-22T00:21:47.064Z,98423.88
2023-05-22T00:24:15.061Z,98421.63
2023-05-22T00:26:44.465Z,98415.59
2023-05-22T00:29:12.489Z,98391.72
2023-05-22T00:31:40.508Z,98408.38
2023-05-22T00:34:08.625Z,98420.34
2023-05-22T00:36:36.633Z,98419.50
2023-05-22T00:39:04.784Z,98422.78
2023-05-22T00:41:34.055Z,98414.00
2023-05-22T00:44:03.896Z,98414.94
2023-05-22T00:46:33.406Z,98425.88
2023-05-22T00:49:01.537Z,98424.56
2023-05-22T00:51:29.776Z,98428.47
2023-05-22T00:53:58.776Z,98432.34
2023-05-22T00:56:29.217Z,98424.31
2023-05-22T00:58:57.529Z,98433.13
2023-05-22T01:01:33.602Z,98431.03
2023-05-22T01:04:02.267Z,98429.53
2023-05-22T01:06:32.364Z,98431.19
2023-05-22T01:09:01.615Z,98423.84
2023-05-22T01:11:37.771Z,98424.41
2023-05-22T01:14:12.178Z,98432.88
2023-05-22T01:16:51.932Z,98437.09
2023-05-22T01:19:41.682Z,98428.09
2023-05-22T01:22:31.104Z,98415.41
2023-05-22T01:25:17.174Z,98429.31
2023-05-22T01:28:03.878Z,98429.84
2023-05-22T01:30:50.071Z,98411.81
2023-05-22T01:33:20.237Z,98428.47
2023-05-22T01:35:54.219Z,98409.84
2023-05-22T01:38:23.068Z,98413.03
2023-05-22T01:40:51.725Z,98397.44
2023-05-22T01:43:20.961Z,98417.09
2023-05-22T01:45:50.685Z,98406.94
2023-05-22T01:48:18.774Z,98425.41
2023-05-22T01:50:52.705Z,98423.97
2023-05-22T01:53:29.178Z,98413.66
2023-05-22T01:56:02.728Z,98420.66
2023-05-22T01:58:35.719Z,98418.78
2023-05-22T02:01:05.626Z,98406.63
2023-05-22T02:03:36.507Z,98418.00
2023-05-22T02:06:07.437Z,98417.41
2023-05-22T02:08:37.164Z,98388.81
2023-05-22T02:11:06.533Z,98412.28
2023-05-22T02:13:35.488Z,98403.09
2023-05-22T02:16:06.416Z,98380.88
2023-05-22T02:18:34.446Z,98409.28
2023-05-22T02:21:03.413Z,98408.28
2023-05-22T02:23:31.493Z,98408.00
2023-05-22T02:25:59.520Z,98396.22
2023-05-22T02:28:28.099Z,98409.59
2023-05-22T02:30:56.168Z,98405.78
2023-05-22T02:33:25.572Z,98411.97
2023-05-22T02:35:53.548Z,98399.97
2023-05-22T02:38:21.513Z,98408.22
2023-05-22T02:40:49.879Z,98379.19
2023-05-22T02:43:17.858Z,98398.50
2023-05-22T02:45:46.011Z,98400.19
2023-05-22T02:48:14.010Z,98402.09
2023-05-22T02:50:44.344Z,98394.03
2023-05-22T02:53:13.252Z,98398.91
2023-05-22T02:55:41.874Z,98408.59
2023-05-22T02:58:11.484Z,98402.78
2023-05-22T03:00:39.701Z,98398.00
2023-05-22T03:03:08.432Z,98388.22
2023-05-22T03:05:36.649Z,98420.00
2023-05-22T03:08:06.849Z,98404.31
2023-05-22T03:10:34.806Z,98393.41
2023-05-22T03:13:02.788Z,98411.97
2023-05-22T03:15:30.925Z,98390.66
2023-05-22T03:17:58.976Z,98413.25
2023-05-22T03:20:27.009Z,98377.00
2023-05-22T03:22:55.063Z,98393.78
2023-05-22T03:25:24.434Z,98407.91
2023-05-22T03:27:52.455Z,98406.09
2023-05-22T03:30:20.523Z,98406.84
2023-05-22T03:32:48.541Z,98405.53
2023-05-22T03:35:19.723Z,98406.22
2023-05-22T03:37:48.234Z,98413.28
2023-05-22T03:40:16.478Z,98412.88
2023-05-22T03:42:45.829Z,98408.22
2023-05-22T03:45:13.873Z,98406.84
2023-05-22T03:47:41.940Z,98418.44
2023-05-22T03:50:11.150Z,98415.38
2023-05-22T03:52:39.491Z,98420.28
2023-05-22T03:55:09.059Z,98430.28
2023-05-22T03:57:37.083Z,98414.13
2023-05-22T04:00:10.004Z,98405.25
2023-05-22T04:02:40.046Z,98429.28
2023-05-22T04:05:09.513Z,98420.94
2023-05-22T04:07:37.738Z,98429.44
2023-05-22T04:10:06.501Z,98431.09
2023-05-22T04:12:35.562Z,98434.97
2023-05-22T04:15:03.601Z,98426.69
2023-05-22T04:17:38.900Z,98428.69
2023-05-22T04:20:10.390Z,98432.09
2023-05-22T04:22:46.000Z,98429.25
2023-05-22T04:25:14.079Z,98431.78
2023-05-22T04:27:42.679Z,98443.75
2023-05-22T04:30:11.597Z,98389.59
2023-05-22T04:32:41.221Z,98440.09
2023-05-22T04:35:10.198Z,98447.75
2023-05-22T04:37:38.411Z,98440.13
2023-05-22T04:40:08.551Z,98430.88
2023-05-22T04:42:37.463Z,98443.63
2023-05-22T04:45:06.218Z,98419.56
2023-05-22T04:47:34.350Z,98437.97
2023-05-22T04:50:04.053Z,98444.53
2023-05-22T04:52:32.049Z,98420.47
2023-05-22T04:55:01.106Z,98450.28
2023-05-22T04:57:29.856Z,98446.38
2023-05-22T04:59:58.299Z,98449.41
2023-05-22T05:02:26.368Z,98438.50
2023-05-22T05:04:54.427Z,98454.75
2023-05-22T05:07:23.828Z,98445.22
2023-05-22T05:09:51.961Z,98445.34
2023-05-22T05:12:19.957Z,98454.31
2023-05-22T05:14:47.986Z,98447.06
2023-05-22T05:17:16.021Z,98450.47
2023-05-22T05:19:43.994Z,98452.09
2023-05-22T05:22:12.001Z,98461.41
2023-05-22T05:24:41.480Z,98448.41
2023-05-22T05:27:09.582Z,98440.59
2023-05-22T05:29:37.633Z,98444.03
2023-05-22T05:32:06.448Z,98455.03
2023-05-22T05:34:34.547Z,98449.94
2023-05-22T05:37:03.355Z,98444.84
2023-05-22T05:39:31.333Z,98457.34
2023-05-22T05:42:01.329Z,98447.94
2023-05-22T05:44:29.296Z,98448.28
2023-05-22T05:46:57.475Z,98455.16
2023-05-22T05:49:25.461Z,98452.13
2023-05-22T05:51:53.402Z,98454.03
2023-05-22T05:54:22.064Z,98448.28
2023-05-22T05:56:50.103Z,98449.13
2023-05-22T05:59:19.496Z,98466.16
2023-05-22T06:01:47.543Z,98455.69
2023-05-22T06:04:15.718Z,98450.28
2023-05-22T06:06:44.676Z,98438.41
2023-05-22T06:09:12.836Z,98463.41
2023-05-22T06:11:40.822Z,98450.38
2023-05-22T06:14:10.077Z,98464.91
2023-05-22T06:16:39.480Z,98470.41
2023-05-22T06:19:07.573Z,98475.13
2023-05-22T06:21:35.656Z,98474.25
2023-05-22T06:24:03.705Z,98461.53
2023-05-22T06:26:31.856Z,98464.31
2023-05-22T06:28:59.868Z,98471.41
2023-05-22T06:31:28.273Z,98445.47
2023-05-22T06:33:57.739Z,98467.22
2023-05-22T06:36:25.821Z,98471.78
2023-05-22T06:38:54.948Z,98459.25
2023-05-22T06:41:23.062Z,98452.66
2023-05-22T06:43:51.012Z,98456.66
2023-05-22T06:46:19.145Z,98462.97
2023-05-22T06:48:47.136Z,98459.44
2023-05-22T06:51:16.567Z,98457.47
2023-05-22T06:53:44.571Z,98467.63
2023-05-22T06:56:12.609Z,98471.78
2023-05-22T06:58:41.260Z,98468.56
2023-05-22T07:01:09.792Z,98466.31
2023-05-22T07:03:39.337Z,98467.31
2023-05-22T07:06:08.844Z,98462.97
2023-05-22T07:08:38.350Z,98472.19
2023-05-22T07:11:07.014Z,98468.13
2023-05-22T07:13:35.131Z,98460.94
2023-05-22T07:16:03.205Z,98478.94
2023-05-22T07:18:31.487Z,98480.97
2023-05-22T07:21:00.707Z,98478.66
2023-05-22T07:23:28.704Z,98475.28
2023-05-22T07:25:58.085Z,98475.16
2023-05-22T07:28:26.132Z,98430.53
2023-05-22T07:30:54.107Z,98471.34
2023-05-22T07:33:22.243Z,98478.75
2023-05-22T07:35:51.965Z,98472.50
2023-05-22T07:38:20.068Z,98448.59
2023-05-22T07:40:48.038Z,98472.56
2023-05-22T07:43:17.365Z,98465.38
2023-05-22T07:45:45.431Z,98477.59
2023-05-22T07:48:13.585Z,98472.63
2023-05-22T07:50:44.908Z,98479.59
2023-05-22T07:53:13.071Z,98475.94
2023-05-22T07:55:41.256Z,98475.91
2023-05-22T07:58:10.971Z,98478.69
2023-05-22T08:00:40.372Z,98468.38
2023-05-22T08:03:08.591Z,98477.63
2023-05-22T08:05:36.896Z,98480.34
2023-05-22T08:08:05.192Z,98480.47
2023-05-22T08:10:46.422Z,98474.63
2023-05-22T08:13:16.937Z,98465.28
2023-05-22T08:15:46.318Z,98483.09
2023-05-22T08:18:14.338Z,98486.84
2023-05-22T08:20:42.349Z,98454.22
2023-05-22T08:23:10.480Z,98485.59
2023-05-22T08:25:38.454Z,98483.09
2023-05-22T08:28:06.615Z,98485.81
2023-05-22T08:30:34.587Z,98480.19
2023-05-22T08:33:04.057Z,98490.59
2023-05-22T08:35:32.043Z,98485.41
2023-05-22T08:38:00.048Z,98478.97
2023-05-22T08:40:36.391Z,98481.47
2023-05-22T08:43:06.015Z,98452.63
2023-05-22T08:45:35.110Z,98482.28
2023-05-22T08:48:06.756Z,98482.94
2023-05-22T08:50:39.911Z,98473.53
2023-05-22T08:53:09.420Z,98485.25
2023-05-22T08:55:37.701Z,98483.56
2023-05-22T08:58:06.241Z,98471.88
2023-05-22T09:00:34.907Z,98476.00
2023-05-22T09:03:03.620Z,98475.38
2023-05-22T09:05:34.309Z,98472.88
2023-05-22T09:08:15.997Z,98469.69
2023-05-22T09:10:48.179Z,98473.22
2023-05-22T09:13:25.915Z,98473.19
2023-05-22T09:15:54.474Z,98474.69
2023-05-22T09:18:26.439Z,98468.53
2023-05-22T09:20:58.731Z,98473.63
2023-05-22T09:23:29.575Z,98479.91
2023-05-22T09:25:58.463Z,98477.78
2023-05-22T09:28:27.137Z,98474.47
2023-05-22T09:30:56.474Z,98471.16
2023-05-22T09:33:25.736Z,98477.09
2023-05-22T09:35:56.272Z,98464.69
2023-05-22T09:38:28.120Z,98468.91
2023-05-22T09:40:57.289Z,98463.50
2023-05-22T09:43:25.982Z,98470.06
2023-05-22T09:46:04.361Z,98465.19
2023-05-22T09:48:36.067Z,98466.09
2023-05-22T09:51:05.837Z,98471.78
2023-05-22T09:53:34.865Z,98470.38
2023-05-22T09:56:06.511Z,98459.00
2023-05-22T09:58:36.734Z,98457.97
2023-05-22T10:01:05.344Z,98461.56
2023-05-22T10:03:35.414Z,98465.25
2023-05-22T10:06:06.109Z,98454.75
2023-05-22T10:08:42.824Z,98442.66
2023-05-22T10:11:12.309Z,98459.03
2023-05-22T10:13:42.481Z,98422.47
2023-05-22T10:16:12.273Z,98451.19
2023-05-22T10:18:41.741Z,98438.56
2023-05-22T10:21:13.358Z,98456.50
2023-05-22T10:23:42.834Z,98449.78
2023-05-22T10:26:12.327Z,98446.88
2023-05-22T10:28:46.281Z,98457.34
2023-05-22T10:31:25.890Z,98446.19
2023-05-22T10:33:58.470Z,98418.81
2023-05-22T10:36:39.836Z,98450.69
2023-05-22T10:39:25.432Z,98447.97
2023-05-22T10:41:54.069Z,98383.09
2023-05-22T10:44:23.984Z,98420.69
2023-05-22T10:46:52.043Z,98425.53
2023-05-22T10:49:24.482Z,98423.19
2023-05-22T10:51:58.203Z,98431.81
2023-05-22T10:54:42.314Z,98431.78
2023-05-22T10:57:16.248Z,98424.44
2023-05-22T10:59:44.334Z,98414.25
2023-05-22T11:02:22.454Z,98406.22
2023-05-22T11:04:50.891Z,98390.44
2023-05-22T11:07:20.687Z,98391.94
2023-05-22T11:09:48.992Z,98416.00
2023-05-22T11:12:21.594Z,98418.44
2023-05-22T11:14:51.850Z,98416.97
2023-05-22T11:17:23.209Z,98395.97
2023-05-22T11:20:06.427Z,98419.94
2023-05-22T11:22:42.272Z,98421.50
2023-05-22T11:25:12.253Z,98424.69
2023-05-22T11:27:42.293Z,98413.56
2023-05-22T11:30:12.179Z,98428.25
2023-05-22T11:32:41.371Z,98431.00
2023-05-22T11:35:10.029Z,98446.50
2023-05-22T11:37:42.826Z,98442.13
2023-05-22T11:40:11.975Z,98439.63
2023-05-22T11:42:40.047Z,98430.03
2023-05-22T11:45:09.288Z,98414.13
2023-05-22T11:47:37.958Z,98428.06
2023-05-22T11:50:07.385Z,98430.78
2023-05-22T11:52:36.407Z,98435.00
2023-05-22T11:55:07.908Z,98431.38
2023-05-22T11:57:36.145Z,98430.78
2023-05-22T12:00:06.584Z,98428.81
2023-05-22T12:02:34.845Z,98435.47
2023-05-22T12:05:02.865Z,98430.47
2023-05-22T12:07:31.028Z,98423.44
2023-05-22T12:10:00.277Z,98418.84
2023-05-22T12:12:29.706Z,98422.16
2023-05-22T12:14:58.925Z,98395.69
2023-05-22T12:17:29.673Z,98412.34
2023-05-22T12:20:01.555Z,98417.38
2023-05-22T12:22:32.113Z,98389.75
2023-05-22T12:25:00.085Z,98408.47
2023-05-22T12:27:33.514Z,98415.88
2023-05-22T12:30:10.374Z,98418.84
2023-05-22T12:32:38.400Z,98380.91
2023-05-22T12:35:07.132Z,98407.63
2023-05-22T12:37:35.714Z,98405.75
2023-05-22T12:40:05.317Z,98393.56
2023-05-22T12:42:34.972Z,98401.63
2023-05-22T12:45:02.954Z,98363.72
2023-05-22T12:47:30.985Z,98389.56
2023-05-22T12:49:59.086Z,98402.19
2023-05-22T12:52:27.057Z,98391.56
2023-05-22T12:54:54.998Z,98410.97
2023-05-22T12:57:22.956Z,98398.03
2023-05-22T12:59:52.239Z,98402.75
2023-05-22T13:02:20.244Z,98396.69
2023-05-22T13:04:48.216Z,98397.22
2023-05-22T13:07:16.205Z,98389.75
2023-05-22T13:09:44.166Z,98397.22
2023-05-22T13:12:12.235Z,98391.25
2023-05-22T13:14:40.649Z,98395.38
2023-05-22T13:17:10.718Z,98366.59
2023-05-22T13:19:38.752Z,98389.56
2023-05-22T13:22:07.825Z,98388.84
2023-05-22T13:24:35.955Z,98383.00
2023-05-22T13:27:03.927Z,98382.28
2023-05-22T13:29:32.892Z,98377.84
2023-05-22T13:32:02.338Z,98378.66
2023-05-22T13:34:31.822Z,98374.41
2023-05-22T13:37:00.023Z,98369.06
2023-05-22T13:39:28.022Z,98370.38
2023-05-22T13:41:57.186Z,98376.81
2023-05-22T13:44:26.225Z,98373.69
2023-05-22T13:46:54.580Z,98368.84
2023-05-22T13:49:22.592Z,98334.47
2023-05-22T13:51:52.001Z,98355.84
2023-05-22T13:54:19.977Z,98374.00
2023-05-22T13:56:47.968Z,98361.19
2023-05-22T13:59:16.037Z,98370.59
2023-05-22T14:01:45.049Z,98368.38
2023-05-22T14:04:13.283Z,98359.28
2023-05-22T14:06:41.378Z,98359.31
2023-05-22T14:09:11.378Z,98333.25
2023-05-22T14:11:39.337Z,98353.13
2023-05-22T14:14:07.982Z,98323.25
2023-05-22T14:16:36.382Z,98349.66
2023-05-22T14:19:05.337Z,98333.47
2023-05-22T14:21:33.747Z,98341.28
2023-05-22T14:24:04.485Z,98348.84
2023-05-22T14:26:34.467Z,98355.19
2023-05-22T14:29:03.835Z,98345.97
2023-05-22T14:31:32.090Z,98337.63
2023-05-22T14:34:00.528Z,98331.47
2023-05-22T14:36:28.628Z,98318.78
2023-05-22T14:38:58.023Z,98303.69
2023-05-22T14:41:26.436Z,98349.97
2023-05-22T14:43:55.806Z,98341.53
2023-05-22T14:46:24.468Z,98359.56
2023-05-22T14:48:53.123Z,98327.66
2023-05-22T14:51:22.799Z,98353.72
2023-05-22T14:53:50.806Z,98345.94
2023-05-22T14:56:18.791Z,98354.84
2023-05-22T14:58:46.759Z,98358.59
2023-05-22T15:01:16.103Z,98360.66
2023-05-22T15:03:44.596Z,98360.72
2023-05-22T15:06:12.581Z,98363.84
2023-05-22T15:08:40.521Z,98361.69
2023-05-22T15:11:08.579Z,98353.88
2023-05-22T15:13:36.623Z,98349.28
2023-05-22T15:16:04.837Z,98348.63
2023-05-22T15:18:34.180Z,98344.09
2023-05-22T15:21:02.343Z,98343.09
2023-05-22T15:23:30.292Z,98334.63
2023-05-22T15:26:12.638Z,98321.81
2023-05-22T15:28:40.999Z,98326.13
2023-05-22T15:31:08.963Z,98320.19
2023-05-22T15:33:39.138Z,98324.53
2023-05-22T15:36:08.785Z,98273.00
2023-05-22T15:38:36.818Z,98322.56
2023-05-22T15:41:04.883Z,98316.50
2023-05-22T15:43:34.803Z,98325.88
2023-05-22T15:46:04.010Z,98327.19
2023-05-22T15:48:32.662Z,98328.38
2023-05-22T15:51:02.967Z,98331.50
2023-05-22T15:53:30.906Z,98327.72
2023-05-22T15:55:58.849Z,98330.00
2023-05-22T15:58:28.520Z,98330.75
2023-05-22T16:00:56.561Z,98315.78
2023-05-22T16:03:25.085Z,98326.31
2023-05-22T16:05:53.080Z,98329.63
2023-05-22T16:08:23.067Z,98329.34
2023-05-22T16:10:51.065Z,98313.59
2023-05-22T16:13:19.693Z,98322.66
2023-05-22T16:15:47.866Z,98321.22
2023-05-22T16:18:17.772Z,98316.72
2023-05-22T16:20:47.824Z,98317.06
2023-05-22T16:23:17.699Z,98305.53
2023-05-22T16:25:50.861Z,98310.59
2023-05-22T16:28:19.929Z,98303.38
2023-05-22T16:30:47.904Z,98314.53
2023-05-22T16:33:15.871Z,98314.09
2023-05-22T16:35:47.222Z,98324.03
2023-05-22T16:38:15.320Z,98309.59
2023-05-22T16:40:45.004Z,98310.78
2023-05-22T16:43:14.952Z,98307.72
2023-05-22T16:45:47.588Z,98321.47
2023-05-22T16:48:15.962Z,98339.63
2023-05-22T16:50:44.327Z,98333.94
2023-05-22T16:53:12.430Z,98336.13
2023-05-22T16:55:40.838Z,98345.50
2023-05-22T16:58:09.666Z,98345.09
2023-05-22T17:00:40.526Z,98347.59
2023-05-22T17:03:09.808Z,98345.78
2023-05-22T17:05:38.776Z,98347.00
2023-05-22T17:08:07.263Z,98324.03
2023-05-22T17:10:35.308Z,98365.19
2023-05-22T17:13:03.373Z,98362.25
2023-05-22T17:15:31.336Z,98345.47
2023-05-22T17:18:00.849Z,98362.75
2023-05-22T17:20:29.515Z,98363.84
2023-05-22T17:22:57.633Z,98360.00
2023-05-22T17:25:30.414Z,98370.75
2023-05-22T17:28:00.033Z,98372.72
2023-05-22T17:30:28.201Z,98373.53
2023-05-22T17:32:58.149Z,98379.47
2023-05-22T17:35:31.303Z,98383.13
2023-05-22T17:38:00.947Z,98385.41
2023-05-22T17:40:40.500Z,98393.44
2023-05-22T17:43:19.315Z,98394.22
2023-05-22T17:45:50.413Z,98397.66
2023-05-22T17:48:27.532Z,98403.50
2023-05-22T17:50:57.295Z,98398.38
2023-05-22T17:53:27.077Z,98411.88
2023-05-22T17:55:54.980Z,98409.34
2023-05-22T17:58:23.406Z,98419.97
2023-05-22T18:00:51.545Z,98427.34
2023-05-22T18:03:21.745Z,98418.59
2023-05-22T18:05:54.388Z,98430.16
2023-05-22T18:08:27.272Z,98432.22
2023-05-22T18:13:44.480Z,98425.97
2023-05-22T18:16:14.511Z,98413.66
2023-05-22T18:18:42.709Z,98422.00
2023-05-22T18:21:11.927Z,98377.41
2023-05-22T18:23:41.531Z,98423.47
2023-05-22T18:26:09.921Z,98424.91
2023-05-22T18:28:37.906Z,98421.59
2023-05-22T18:31:05.983Z,98432.66
2023-05-22T18:33:34.285Z,98385.72
2023-05-22T18:36:02.256Z,98428.06
2023-05-22T18:38:30.795Z,98418.22
2023-05-22T18:41:00.164Z,98397.81
2023-05-22T18:43:28.703Z,98429.31
2023-05-22T18:45:57.904Z,98435.78
2023-05-22T18:48:27.246Z,98433.06
2023-05-22T18:50:57.434Z,98433.59
2023-05-22T18:53:26.147Z,98422.94
2023-05-22T18:55:54.793Z,98423.34
2023-05-22T18:58:24.190Z,98430.59
2023-05-22T19:00:55.462Z,98444.16
2023-05-22T19:03:23.731Z,98433.28
2023-05-22T19:05:51.735Z,98448.06
2023-05-22T19:08:20.293Z,98440.25
2023-05-22T19:10:48.244Z,98445.66
2023-05-22T19:13:16.266Z,98459.41
2023-05-22T19:15:47.322Z,98464.00
2023-05-22T19:18:17.346Z,98459.38
2023-05-22T19:20:45.427Z,98464.78
2023-05-22T19:23:14.731Z,98466.34
2023-05-22T19:25:42.895Z,98465.00
2023-05-22T19:28:11.073Z,98485.56
2023-05-22T19:30:39.727Z,98480.94
2023-05-22T19:33:10.714Z,98491.63
2023-05-22T19:35:38.934Z,98481.75
2023-05-22T19:38:06.875Z,98499.88
2023-05-22T19:40:34.837Z,98452.47
2023-05-22T19:43:03.010Z,98489.78
2023-05-22T19:45:30.996Z,98495.06
2023-05-22T19:47:58.976Z,98495.53
2023-05-22T19:50:28.427Z,98472.06
2023-05-22T19:52:56.624Z,98505.22
2023-05-22T19:55:24.807Z,98492.50
2023-05-22T19:57:54.241Z,98507.44
2023-05-22T20:00:35.312Z,98513.59
2023-05-22T20:03:03.440Z,98513.88
2023-05-22T20:05:32.908Z,98500.81
2023-05-22T20:08:05.092Z,98514.69
2023-05-22T20:10:35.989Z,98517.59
2023-05-22T20:13:04.979Z,98510.22
2023-05-22T20:15:33.112Z,98511.34
2023-05-22T20:18:02.682Z,98514.66
2023-05-22T20:20:32.182Z,98505.31
2023-05-22T20:23:00.270Z,98510.69
2023-05-22T20:25:28.304Z,98512.91
2023-05-22T20:27:56.304Z,98526.56
2023-05-22T20:30:24.622Z,98537.38
2023-05-22T20:32:53.154Z,98535.88
2023-05-22T20:35:22.202Z,98540.44
2023-05-22T20:37:53.442Z,98547.88
2023-05-22T20:40:22.763Z,98537.38
2023-05-22T20:42:53.583Z,98542.31
2023-05-22T20:45:21.913Z,98530.03
2023-05-22T20:47:49.865Z,98558.69
2023-05-22T20:50:18.547Z,98516.41
2023-05-22T20:52:49.658Z,98514.72
2023-05-22T20:55:19.124Z,98563.47
2023-05-22T20:57:47.126Z,98536.28
2023-05-22T21:00:18.333Z,98569.41
2023-05-22T21:02:48.126Z,98560.22
2023-05-22T21:05:16.157Z,98549.22
2023-05-22T21:07:44.196Z,98574.25
2023-05-22T21:10:12.777Z,98571.91
2023-05-22T21:12:42.125Z,98577.59
2023-05-22T21:15:11.293Z,98571.06
2023-05-22T21:17:40.117Z,98582.16
2023-05-22T21:20:09.372Z,98591.22
2023-05-22T21:22:37.670Z,98593.63
2023-05-22T21:25:07.164Z,98594.81
2023-05-22T21:27:35.510Z,98594.38
2023-05-22T21:30:05.342Z,98591.25
2023-05-22T21:32:33.537Z,98590.63
2023-05-22T21:35:01.817Z,98585.38
2023-05-22T21:37:29.795Z,98594.13
2023-05-22T21:39:57.753Z,98590.28
2023-05-22T21:42:26.292Z,98576.38
2023-05-22T21:44:54.382Z,98593.38
2023-05-22T21:47:23.751Z,98600.16
2023-05-22T21:49:51.705Z,98607.53
2023-05-22T21:52:19.686Z,98607.75
2023-05-22T21:54:47.660Z,98582.41
2023-05-22T21:57:15.602Z,98612.59
2023-05-22T21:59:43.573Z,98595.63
2023-05-22T22:02:11.871Z,98609.44
2023-05-22T22:04:41.282Z,98608.75
2023-05-22T22:07:09.252Z,98613.78
2023-05-22T22:09:37.221Z,98614.66
2023-05-22T22:12:05.610Z,98617.53
2023-05-22T22:14:33.579Z,98632.31
2023-05-22T22:17:01.533Z,98636.03
2023-05-22T22:19:29.604Z,98640.56
2023-05-22T22:21:59.156Z,98624.09
2023-05-22T22:24:27.185Z,98610.31
2023-05-22T22:26:57.575Z,98630.97
2023-05-22T22:29:26.210Z,98638.69
2023-05-22T22:31:54.235Z,98637.19
2023-05-22T22:34:22.225Z,98627.63
2023-05-22T22:36:50.210Z,98643.75
2023-05-22T22:39:19.512Z,98634.00
2023-05-22T22:41:47.469Z,98636.72
2023-05-22T22:44:15.437Z,98629.63
2023-05-22T22:46:44.256Z,98635.69
2023-05-22T22:49:12.261Z,98605.81
2023-05-22T22:51:40.454Z,98634.16
2023-05-22T22:54:08.389Z,98628.97
2023-05-22T22:56:37.772Z,98637.03
2023-05-22T22:59:05.720Z,98640.72
2023-05-22T23:01:33.898Z,98640.06
2023-05-22T23:04:01.941Z,98640.75
2023-05-22T23:06:32.980Z,98648.97
2023-05-22T23:09:03.949Z,98642.41
2023-05-22T23:11:37.493Z,98647.78
2023-05-22T23:14:07.856Z,98639.72
2023-05-22T23:16:40.868Z,98643.75
2023-05-22T23:19:10.657Z,98632.84
2023-05-22T23:21:38.846Z,98645.91
2023-05-22T23:24:07.628Z,98636.50
2023-05-22T23:26:35.645Z,98628.94
2023-05-22T23:29:03.709Z,98631.81
2023-05-22T23:31:33.099Z,98630.13
2023-05-22T23:34:01.190Z,98630.97
2023-05-22T23:36:30.207Z,98636.34
2023-05-22T23:38:58.134Z,98636.00
2023-05-22T23:41:26.086Z,98629.63
2023-05-22T23:43:54.050Z,98639.03
2023-05-22T23:46:24.648Z,98629.91
2023-05-22T23:48:54.274Z,98589.09
2023-05-22T23:51:22.288Z,98637.28
2023-05-22T23:53:50.207Z,98641.97
2023-05-22T23:56:18.175Z,98627.00
2023-05-22T23:58:46.102Z,98638.44
